Back to Top

Language: 

My Weather Underground Personal Weather Station Historical Data with Graphs...

Delerius Weather Station Historical Data
Daily Summary for February 9, 2017 Units:  Both    English   Metric
« Previous Day
Next Day »
Daily Weekly Monthly Yearly Custom
  High: Low: Average:
Temperature: 36.4 °F /  2.4 °C 33.3 °F /  0.7 °C 34.5 °F /  1.4 °C
Dew Point: 33.5 °F /  0.8 °C 30.8 °F /  -0.7 °C 32 °F /  0 °C
Humidity: 94 % 81 % 91 %
Wind Speed: 5.0 mph /  8 km/h - 1.8 mph /  2.9 km/h
Wind Gust: 9.0 mph /  14.5 km/h - -
Wind:- - East
Pressure: 30.46 in /  1031.4 hPa 30.34 in /  1027.3 hPa -
Precipitation: 0.00 in /  0 mm    
Historical Graphs
 
 
Tabular Data for February 9, 2017
Time Temperature Dew Point Pressure Wind Wind Speed Wind Gust Humidity Rainfall Rate (Hourly) solar Conditions
00:00 35.1 °F /  1.7 °C 33.5 °F /  0.8 °C 30.45 in /  1031 hPa Calm   2.0 mph /  3.2 km/h 94 % 0.00 in /  0 mm 0 W/m2
00:05 35.0 °F /  1.7 °C 33.4 °F /  0.8 °C 30.46 in /  1031.4 hPa Calm   2.0 mph /  3.2 km/h 94 % 0.00 in /  0 mm 0 W/m2
00:15 35.0 °F /  1.7 °C 33.4 °F /  0.8 °C 30.45 in /  1031 hPa Calm   1.0 mph /  1.6 km/h 94 % 0.00 in /  0 mm 0 W/m2
00:20 35.0 °F /  1.7 °C 33.4 °F /  0.8 °C 30.46 in /  1031.4 hPa Calm     94 % 0.00 in /  0 mm 0 W/m2
00:30 34.9 °F /  1.6 °C 33.3 °F /  0.7 °C 30.46 in /  1031.4 hPa Calm     94 % 0.00 in /  0 mm 0 W/m2
00:35 34.9 °F /  1.6 °C 33.3 °F /  0.7 °C 30.45 in /  1031 hPa Calm   1.0 mph /  1.6 km/h 94 % 0.00 in /  0 mm 0 W/m2
00:40 34.9 °F /  1.6 °C 33.3 °F /  0.7 °C 30.45 in /  1031 hPa Calm   2.0 mph /  3.2 km/h 94 % 0.00 in /  0 mm 0 W/m2
00:45 34.9 °F /  1.6 °C 33.3 °F /  0.7 °C 30.45 in /  1031 hPa Calm   2.0 mph /  3.2 km/h 94 % 0.00 in /  0 mm 0 W/m2
00:50 34.9 °F /  1.6 °C 33.3 °F /  0.7 °C 30.45 in /  1031 hPa Calm     94 % 0.00 in /  0 mm 0 W/m2
01:00 34.8 °F /  1.6 °C 33.2 °F /  0.7 °C 30.45 in /  1031 hPa Calm     94 % 0.00 in /  0 mm 0 W/m2
01:05 34.8 °F /  1.6 °C 33.2 °F /  0.7 °C 30.45 in /  1031 hPa Calm   3.0 mph /  4.8 km/h 94 % 0.00 in /  0 mm 0 W/m2
01:10 34.8 °F /  1.6 °C 33.2 °F /  0.7 °C 30.45 in /  1031 hPa Calm   3.0 mph /  4.8 km/h 94 % 0.00 in /  0 mm 0 W/m2
01:15 34.8 °F /  1.6 °C 33.2 °F /  0.7 °C 30.45 in /  1031 hPa Calm   3.0 mph /  4.8 km/h 94 % 0.00 in /  0 mm 0 W/m2
01:20 34.8 °F /  1.6 °C 33.2 °F /  0.7 °C 30.45 in /  1031 hPa Calm   3.0 mph /  4.8 km/h 94 % 0.00 in /  0 mm 0 W/m2
01:25 34.7 °F /  1.5 °C 33.2 °F /  0.7 °C 30.45 in /  1031 hPa Calm   3.0 mph /  4.8 km/h 94 % 0.00 in /  0 mm 0 W/m2
01:35 34.7 °F /  1.5 °C 33.2 °F /  0.7 °C 30.45 in /  1031 hPa Calm   3.0 mph /  4.8 km/h 94 % 0.00 in /  0 mm 0 W/m2
01:40 34.7 °F /  1.5 °C 33.2 °F /  0.7 °C 30.45 in /  1031 hPa Calm   3.0 mph /  4.8 km/h 94 % 0.00 in /  0 mm 0 W/m2
01:45 34.7 °F /  1.5 °C 33.2 °F /  0.7 °C 30.45 in /  1031 hPa Calm   3.0 mph /  4.8 km/h 94 % 0.00 in /  0 mm 0 W/m2
01:50 34.7 °F /  1.5 °C 33.2 °F /  0.7 °C 30.45 in /  1031 hPa Calm   3.0 mph /  4.8 km/h 94 % 0.00 in /  0 mm 0 W/m2
01:55 34.7 °F /  1.5 °C 33.2 °F /  0.7 °C 30.45 in /  1031 hPa Calm   3.0 mph /  4.8 km/h 94 % 0.00 in /  0 mm 0 W/m2
02:05 34.6 °F /  1.4 °C 33.1 °F /  0.6 °C 30.45 in /  1031 hPa Calm   3.0 mph /  4.8 km/h 94 % 0.00 in /  0 mm 0 W/m2
02:10 34.6 °F /  1.4 °C 33.1 °F /  0.6 °C 30.45 in /  1031 hPa Calm   3.0 mph /  4.8 km/h 94 % 0.00 in /  0 mm 0 W/m2
02:15 34.6 °F /  1.4 °C 33.1 °F /  0.6 °C 30.45 in /  1031 hPa Calm   3.0 mph /  4.8 km/h 94 % 0.00 in /  0 mm 0 W/m2
02:20 34.6 °F /  1.4 °C 33.1 °F /  0.6 °C 30.45 in /  1031 hPa Calm   3.0 mph /  4.8 km/h 94 % 0.00 in /  0 mm 0 W/m2
02:25 34.6 °F /  1.4 °C 33.1 °F /  0.6 °C 30.45 in /  1031 hPa Calm   3.0 mph /  4.8 km/h 94 % 0.00 in /  0 mm 0 W/m2
02:30 34.6 °F /  1.4 °C 33.1 °F /  0.6 °C 30.45 in /  1031 hPa Calm   3.0 mph /  4.8 km/h 94 % 0.00 in /  0 mm 0 W/m2
02:40 34.5 °F /  1.4 °C 33.0 °F /  0.6 °C 30.45 in /  1031 hPa Calm   3.0 mph /  4.8 km/h 94 % 0.00 in /  0 mm 0 W/m2
02:45 34.5 °F /  1.4 °C 33.0 °F /  0.6 °C 30.45 in /  1031 hPa Calm   3.0 mph /  4.8 km/h 94 % 0.00 in /  0 mm 0 W/m2
02:50 34.5 °F /  1.4 °C 33.0 °F /  0.6 °C 30.45 in /  1031 hPa Calm   3.0 mph /  4.8 km/h 94 % 0.00 in /  0 mm 0 W/m2
02:55 34.5 °F /  1.4 °C 33.0 °F /  0.6 °C 30.45 in /  1031 hPa Calm   3.0 mph /  4.8 km/h 94 % 0.00 in /  0 mm 0 W/m2
03:00 34.4 °F /  1.3 °C 32.9 °F /  0.5 °C 30.45 in /  1031 hPa Calm   3.0 mph /  4.8 km/h 94 % 0.00 in /  0 mm 0 W/m2
03:10 34.5 °F /  1.4 °C 33.0 °F /  0.6 °C 30.45 in /  1031 hPa Calm   3.0 mph /  4.8 km/h 94 % 0.00 in /  0 mm 0 W/m2
03:15 34.4 °F /  1.3 °C 32.9 °F /  0.5 °C 30.45 in /  1031 hPa Calm   3.0 mph /  4.8 km/h 94 % 0.00 in /  0 mm 0 W/m2
03:20 34.4 °F /  1.3 °C 32.9 °F /  0.5 °C 30.45 in /  1031 hPa Calm   3.0 mph /  4.8 km/h 94 % 0.00 in /  0 mm 0 W/m2
03:25 34.4 °F /  1.3 °C 32.9 °F /  0.5 °C 30.44 in /  1030.7 hPa Calm   3.0 mph /  4.8 km/h 94 % 0.00 in /  0 mm 0 W/m2
03:30 34.4 °F /  1.3 °C 32.9 °F /  0.5 °C 30.44 in /  1030.7 hPa Calm   3.0 mph /  4.8 km/h 94 % 0.00 in /  0 mm 0 W/m2
03:35 34.5 °F /  1.4 °C 33.0 °F /  0.6 °C 30.44 in /  1030.7 hPa Calm   3.0 mph /  4.8 km/h 94 % 0.00 in /  0 mm 0 W/m2
03:45 34.5 °F /  1.4 °C 33.0 °F /  0.6 °C 30.44 in /  1030.7 hPa Calm   3.0 mph /  4.8 km/h 94 % 0.00 in /  0 mm 0 W/m2
03:50 34.4 °F /  1.3 °C 32.9 °F /  0.5 °C 30.44 in /  1030.7 hPa Calm   3.0 mph /  4.8 km/h 94 % 0.00 in /  0 mm 0 W/m2
03:55 34.4 °F /  1.3 °C 32.9 °F /  0.5 °C 30.44 in /  1030.7 hPa Calm   3.0 mph /  4.8 km/h 94 % 0.00 in /  0 mm 0 W/m2
04:05 34.3 °F /  1.3 °C 32.5 °F /  0.3 °C 30.44 in /  1030.7 hPa Calm   3.0 mph /  4.8 km/h 93 % 0.00 in /  0 mm 0 W/m2
04:10 34.3 °F /  1.3 °C 32.5 °F /  0.3 °C 30.44 in /  1030.7 hPa NE 1.0 mph /  1.6 km/h 3.0 mph /  4.8 km/h 93 % 0.00 in /  0 mm 0 W/m2
04:15 34.3 °F /  1.3 °C 32.2 °F /  0.1 °C 30.44 in /  1030.7 hPa NE 2.0 mph /  3.2 km/h 3.0 mph /  4.8 km/h 92 % 0.00 in /  0 mm 0 W/m2
04:20 34.4 °F /  1.3 °C 32.3 °F /  0.2 °C 30.44 in /  1030.7 hPa NE 1.0 mph /  1.6 km/h 1.0 mph /  1.6 km/h 92 % 0.00 in /  0 mm 0 W/m2
04:25 34.4 °F /  1.3 °C 32.3 °F /  0.2 °C 30.44 in /  1030.7 hPa Calm   3.0 mph /  4.8 km/h 92 % 0.00 in /  0 mm 0 W/m2
04:35 34.4 °F /  1.3 °C 32.3 °F /  0.2 °C 30.44 in /  1030.7 hPa Calm   3.0 mph /  4.8 km/h 92 % 0.00 in /  0 mm 0 W/m2
04:40 34.4 °F /  1.3 °C 32.3 °F /  0.2 °C 30.44 in /  1030.7 hPa Calm   3.0 mph /  4.8 km/h 92 % 0.00 in /  0 mm 0 W/m2
04:45 34.4 °F /  1.3 °C 32.0 °F /  0 °C 30.44 in /  1030.7 hPa Calm   3.0 mph /  4.8 km/h 91 % 0.00 in /  0 mm 0 W/m2
04:55 34.4 °F /  1.3 °C 32.0 °F /  0 °C 30.44 in /  1030.7 hPa Calm   3.0 mph /  4.8 km/h 91 % 0.00 in /  0 mm 0 W/m2
05:00 34.4 °F /  1.3 °C 32.0 °F /  0 °C 30.44 in /  1030.7 hPa Calm   3.0 mph /  4.8 km/h 91 % 0.00 in /  0 mm 0 W/m2
05:05 34.4 °F /  1.3 °C 32.0 °F /  0 °C 30.44 in /  1030.7 hPa Calm   3.0 mph /  4.8 km/h 91 % 0.00 in /  0 mm 0 W/m2
05:10 34.4 °F /  1.3 °C 32.0 °F /  0 °C 30.44 in /  1030.7 hPa Calm   3.0 mph /  4.8 km/h 91 % 0.00 in /  0 mm 0 W/m2
05:15 34.4 °F /  1.3 °C 32.0 °F /  0 °C 30.44 in /  1030.7 hPa Calm   3.0 mph /  4.8 km/h 91 % 0.00 in /  0 mm 0 W/m2
05:25 34.4 °F /  1.3 °C 32.0 °F /  0 °C 30.44 in /  1030.7 hPa Calm   3.0 mph /  4.8 km/h 91 % 0.00 in /  0 mm 0 W/m2
05:30 34.4 °F /  1.3 °C 32.0 °F /  0 °C 30.44 in /  1030.7 hPa Calm   3.0 mph /  4.8 km/h 91 % 0.00 in /  0 mm 0 W/m2
05:35 34.4 °F /  1.3 °C 31.8 °F /  -0.1 °C 30.44 in /  1030.7 hPa Calm   3.0 mph /  4.8 km/h 90 % 0.00 in /  0 mm 0 W/m2
05:40 34.3 °F /  1.3 °C 31.7 °F /  -0.2 °C 30.44 in /  1030.7 hPa Calm   3.0 mph /  4.8 km/h 90 % 0.00 in /  0 mm 0 W/m2
05:45 34.3 °F /  1.3 °C 31.7 °F /  -0.2 °C 30.44 in /  1030.7 hPa Calm   3.0 mph /  4.8 km/h 90 % 0.00 in /  0 mm 0 W/m2
05:55 34.3 °F /  1.3 °C 31.7 °F /  -0.2 °C 30.44 in /  1030.7 hPa ENE 1.0 mph /  1.6 km/h 3.0 mph /  4.8 km/h 90 % 0.00 in /  0 mm 0 W/m2
06:00 34.3 °F /  1.3 °C 31.4 °F /  -0.3 °C 30.44 in /  1030.7 hPa ENE 1.0 mph /  1.6 km/h 3.0 mph /  4.8 km/h 89 % 0.00 in /  0 mm 0 W/m2
06:05 34.3 °F /  1.3 °C 31.4 °F /  -0.3 °C 30.44 in /  1030.7 hPa East 1.0 mph /  1.6 km/h 3.0 mph /  4.8 km/h 89 % 0.00 in /  0 mm 0 W/m2
06:10 34.3 °F /  1.3 °C 31.4 °F /  -0.3 °C 30.44 in /  1030.7 hPa East 2.0 mph /  3.2 km/h 2.0 mph /  3.2 km/h 89 % 0.00 in /  0 mm 0 W/m2
06:15 34.3 °F /  1.3 °C 31.4 °F /  -0.3 °C 30.44 in /  1030.7 hPa ENE 1.0 mph /  1.6 km/h 3.0 mph /  4.8 km/h 89 % 0.00 in /  0 mm 0 W/m2
06:20 34.3 °F /  1.3 °C 31.4 °F /  -0.3 °C 30.44 in /  1030.7 hPa East 1.0 mph /  1.6 km/h 1.0 mph /  1.6 km/h 89 % 0.00 in /  0 mm 0 W/m2
06:30 34.3 °F /  1.3 °C 31.4 °F /  -0.3 °C 30.44 in /  1030.7 hPa ENE 1.0 mph /  1.6 km/h 1.0 mph /  1.6 km/h 89 % 0.00 in /  0 mm 0 W/m2
06:35 34.2 °F /  1.2 °C 31.6 °F /  -0.2 °C 30.44 in /  1030.7 hPa ENE 1.0 mph /  1.6 km/h 3.0 mph /  4.8 km/h 90 % 0.00 in /  0 mm 0 W/m2
06:40 34.2 °F /  1.2 °C 31.6 °F /  -0.2 °C 30.43 in /  1030.4 hPa ENE 1.0 mph /  1.6 km/h 3.0 mph /  4.8 km/h 90 % 0.00 in /  0 mm 0 W/m2
06:45 34.2 °F /  1.2 °C 31.6 °F /  -0.2 °C 30.43 in /  1030.4 hPa ENE 1.0 mph /  1.6 km/h 4.0 mph /  6.4 km/h 90 % 0.00 in /  0 mm 0 W/m2
06:50 34.2 °F /  1.2 °C 31.6 °F /  -0.2 °C 30.43 in /  1030.4 hPa ENE 1.0 mph /  1.6 km/h 1.0 mph /  1.6 km/h 90 % 0.00 in /  0 mm 0 W/m2
07:00 34.2 °F /  1.2 °C 31.6 °F /  -0.2 °C 30.43 in /  1030.4 hPa ENE 1.0 mph /  1.6 km/h 3.0 mph /  4.8 km/h 90 % 0.00 in /  0 mm 0 W/m2
07:05 34.1 °F /  1.2 °C 31.5 °F /  -0.3 °C 30.43 in /  1030.4 hPa ENE 1.0 mph /  1.6 km/h 3.0 mph /  4.8 km/h 90 % 0.00 in /  0 mm 0 W/m2
07:10 34.1 °F /  1.2 °C 31.5 °F /  -0.3 °C 30.43 in /  1030.4 hPa ENE 1.0 mph /  1.6 km/h 3.0 mph /  4.8 km/h 90 % 0.00 in /  0 mm 0 W/m2
07:15 34.1 °F /  1.2 °C 31.7 °F /  -0.2 °C 30.43 in /  1030.4 hPa ENE 1.0 mph /  1.6 km/h 3.0 mph /  4.8 km/h 91 % 0.00 in /  0 mm 0 W/m2
07:20 34.1 °F /  1.2 °C 31.7 °F /  -0.2 °C 30.43 in /  1030.4 hPa East 1.0 mph /  1.6 km/h 3.0 mph /  4.8 km/h 91 % 0.00 in /  0 mm 0 W/m2
07:25 34.0 °F /  1.1 °C 31.6 °F /  -0.2 °C 30.43 in /  1030.4 hPa East 1.0 mph /  1.6 km/h 6.0 mph /  9.7 km/h 91 % 0.00 in /  0 mm 0 W/m2
07:35 34.0 °F /  1.1 °C 31.6 °F /  -0.2 °C 30.43 in /  1030.4 hPa ESE 1.0 mph /  1.6 km/h 3.0 mph /  4.8 km/h 91 % 0.00 in /  0 mm 0 W/m2
07:40 34.1 °F /  1.2 °C 31.7 °F /  -0.2 °C 30.43 in /  1030.4 hPa ESE 1.0 mph /  1.6 km/h 1.0 mph /  1.6 km/h 91 % 0.00 in /  0 mm 0 W/m2
07:45 34.1 °F /  1.2 °C 31.7 °F /  -0.2 °C 30.43 in /  1030.4 hPa Calm   3.0 mph /  4.8 km/h 91 % 0.00 in /  0 mm 0 W/m2
07:50 34.1 °F /  1.2 °C 31.7 °F /  -0.2 °C 30.43 in /  1030.4 hPa Calm   3.0 mph /  4.8 km/h 91 % 0.00 in /  0 mm 0 W/m2
07:55 34.1 °F /  1.2 °C 31.7 °F /  -0.2 °C 30.43 in /  1030.4 hPa Calm   3.0 mph /  4.8 km/h 91 % 0.00 in /  0 mm 0 W/m2
08:05 34.1 °F /  1.2 °C 32.0 °F /  0 °C 30.43 in /  1030.4 hPa ESE 1.0 mph /  1.6 km/h 3.0 mph /  4.8 km/h 92 % 0.00 in /  0 mm 7 W/m2
08:10 34.2 °F /  1.2 °C 32.1 °F /  0.1 °C 30.43 in /  1030.4 hPa Calm   3.0 mph /  4.8 km/h 92 % 0.00 in /  0 mm 7 W/m2
08:15 34.1 °F /  1.2 °C 32.0 °F /  0 °C 30.43 in /  1030.4 hPa Calm   3.0 mph /  4.8 km/h 92 % 0.00 in /  0 mm 9 W/m2
08:20 34.1 °F /  1.2 °C 32.0 °F /  0 °C 30.42 in /  1030 hPa Calm   3.0 mph /  4.8 km/h 92 % 0.00 in /  0 mm 12 W/m2
08:25 34.2 °F /  1.2 °C 32.1 °F /  0.1 °C 30.42 in /  1030 hPa Calm   3.0 mph /  4.8 km/h 92 % 0.00 in /  0 mm 14 W/m2
08:30 34.1 °F /  1.2 °C 32.0 °F /  0 °C 30.42 in /  1030 hPa Calm   3.0 mph /  4.8 km/h 92 % 0.00 in /  0 mm 14 W/m2
08:40 34.1 °F /  1.2 °C 32.0 °F /  0 °C 30.42 in /  1030 hPa Calm   3.0 mph /  4.8 km/h 92 % 0.00 in /  0 mm 16 W/m2
08:45 34.1 °F /  1.2 °C 32.0 °F /  0 °C 30.42 in /  1030 hPa Calm   3.0 mph /  4.8 km/h 92 % 0.00 in /  0 mm 16 W/m2
08:50 34.2 °F /  1.2 °C 32.1 °F /  0.1 °C 30.42 in /  1030 hPa Calm   3.0 mph /  4.8 km/h 92 % 0.00 in /  0 mm 16 W/m2
08:55 34.2 °F /  1.2 °C 32.1 °F /  0.1 °C 30.42 in /  1030 hPa Calm   3.0 mph /  4.8 km/h 92 % 0.00 in /  0 mm 18 W/m2
09:00 34.3 °F /  1.3 °C 32.2 °F /  0.1 °C 30.42 in /  1030 hPa Calm   3.0 mph /  4.8 km/h 92 % 0.00 in /  0 mm 19 W/m2
09:10 34.3 °F /  1.3 °C 32.2 °F /  0.1 °C 30.42 in /  1030 hPa ENE 1.0 mph /  1.6 km/h 3.0 mph /  4.8 km/h 92 % 0.00 in /  0 mm 16 W/m2
09:15 34.3 °F /  1.3 °C 32.2 °F /  0.1 °C 30.42 in /  1030 hPa ENE 1.0 mph /  1.6 km/h 3.0 mph /  4.8 km/h 92 % 0.00 in /  0 mm 14 W/m2
09:20 34.3 °F /  1.3 °C 31.9 °F /  -0.1 °C 30.42 in /  1030 hPa East 2.0 mph /  3.2 km/h 5.0 mph /  8 km/h 91 % 0.00 in /  0 mm 16 W/m2
09:25 34.3 °F /  1.3 °C 31.9 °F /  -0.1 °C 30.42 in /  1030 hPa East 2.0 mph /  3.2 km/h 5.0 mph /  8 km/h 91 % 0.00 in /  0 mm 19 W/m2
09:30 34.3 °F /  1.3 °C 31.9 °F /  -0.1 °C 30.42 in /  1030 hPa ENE 2.0 mph /  3.2 km/h 5.0 mph /  8 km/h 91 % 0.00 in /  0 mm 19 W/m2
09:35 34.3 °F /  1.3 °C 31.9 °F /  -0.1 °C 30.42 in /  1030 hPa East 3.0 mph /  4.8 km/h 5.0 mph /  8 km/h 91 % 0.00 in /  0 mm 18 W/m2
09:45 34.4 °F /  1.3 °C 32.3 °F /  0.2 °C 30.42 in /  1030 hPa NE 1.0 mph /  1.6 km/h 3.0 mph /  4.8 km/h 92 % 0.00 in /  0 mm 23 W/m2
09:50 34.4 °F /  1.3 °C 32.3 °F /  0.2 °C 30.42 in /  1030 hPa ENE 1.0 mph /  1.6 km/h 5.0 mph /  8 km/h 92 % 0.00 in /  0 mm 23 W/m2
09:55 34.4 °F /  1.3 °C 32.3 °F /  0.2 °C 30.42 in /  1030 hPa ENE 2.0 mph /  3.2 km/h 5.0 mph /  8 km/h 92 % 0.00 in /  0 mm 28 W/m2
10:00 34.5 °F /  1.4 °C 32.4 °F /  0.2 °C 30.42 in /  1030 hPa ENE 1.0 mph /  1.6 km/h 1.0 mph /  1.6 km/h 92 % 0.00 in /  0 mm 30 W/m2
10:05 34.5 °F /  1.4 °C 32.4 °F /  0.2 °C 30.42 in /  1030 hPa ENE 1.0 mph /  1.6 km/h 3.0 mph /  4.8 km/h 92 % 0.00 in /  0 mm 33 W/m2
10:15 34.7 °F /  1.5 °C 32.6 °F /  0.3 °C 30.42 in /  1030 hPa East 1.0 mph /  1.6 km/h 3.0 mph /  4.8 km/h 92 % 0.00 in /  0 mm 46 W/m2
10:20 34.7 °F /  1.5 °C 32.6 °F /  0.3 °C 30.42 in /  1030 hPa East 1.0 mph /  1.6 km/h 3.0 mph /  4.8 km/h 92 % 0.00 in /  0 mm 47 W/m2
10:25 34.8 °F /  1.6 °C 32.4 °F /  0.2 °C 30.42 in /  1030 hPa East 2.0 mph /  3.2 km/h 4.0 mph /  6.4 km/h 91 % 0.00 in /  0 mm 58 W/m2
10:30 34.9 °F /  1.6 °C 32.8 °F /  0.4 °C 30.42 in /  1030 hPa East 2.0 mph /  3.2 km/h 4.0 mph /  6.4 km/h 92 % 0.00 in /  0 mm 53 W/m2
10:35 35.0 °F /  1.7 °C 32.6 °F /  0.3 °C 30.42 in /  1030 hPa ESE 2.0 mph /  3.2 km/h 4.0 mph /  6.4 km/h 91 % 0.00 in /  0 mm 58 W/m2
10:40 35.1 °F /  1.7 °C 32.7 °F /  0.4 °C 30.41 in /  1029.7 hPa ESE 3.0 mph /  4.8 km/h 3.0 mph /  4.8 km/h 91 % 0.00 in /  0 mm 49 W/m2
10:50 35.1 °F /  1.7 °C 32.5 °F /  0.3 °C 30.41 in /  1029.7 hPa SE 2.0 mph /  3.2 km/h 2.0 mph /  3.2 km/h 90 % 0.00 in /  0 mm 35 W/m2
10:55 35.1 °F /  1.7 °C 32.5 °F /  0.3 °C 30.41 in /  1029.7 hPa ESE 2.0 mph /  3.2 km/h 3.0 mph /  4.8 km/h 90 % 0.00 in /  0 mm 39 W/m2
11:00 35.1 °F /  1.7 °C 32.5 °F /  0.3 °C 30.41 in /  1029.7 hPa ENE 2.0 mph /  3.2 km/h 5.0 mph /  8 km/h 90 % 0.00 in /  0 mm 35 W/m2
11:05 35.1 °F /  1.7 °C 32.5 °F /  0.3 °C 30.41 in /  1029.7 hPa ENE 2.0 mph /  3.2 km/h 5.0 mph /  8 km/h 90 % 0.00 in /  0 mm 37 W/m2
11:10 35.1 °F /  1.7 °C 32.2 °F /  0.1 °C 30.41 in /  1029.7 hPa ENE 3.0 mph /  4.8 km/h 5.0 mph /  8 km/h 89 % 0.00 in /  0 mm 46 W/m2
11:20 35.3 °F /  1.8 °C 32.4 °F /  0.2 °C 30.41 in /  1029.7 hPa East 2.0 mph /  3.2 km/h 2.0 mph /  3.2 km/h 89 % 0.00 in /  0 mm 58 W/m2
11:25 35.3 °F /  1.8 °C 32.4 °F /  0.2 °C 30.41 in /  1029.7 hPa ESE 3.0 mph /  4.8 km/h 7.0 mph /  11.3 km/h 89 % 0.00 in /  0 mm 42 W/m2
11:30 35.3 °F /  1.8 °C 32.4 °F /  0.2 °C 30.41 in /  1029.7 hPa ESE 4.0 mph /  6.4 km/h 4.0 mph /  6.4 km/h 89 % 0.00 in /  0 mm 42 W/m2
11:35 35.3 °F /  1.8 °C 32.1 °F /  0.1 °C 30.41 in /  1029.7 hPa ESE 4.0 mph /  6.4 km/h 4.0 mph /  6.4 km/h 88 % 0.00 in /  0 mm 46 W/m2
11:45 35.4 °F /  1.9 °C 32.2 °F /  0.1 °C 30.41 in /  1029.7 hPa ESE 3.0 mph /  4.8 km/h 4.0 mph /  6.4 km/h 88 % 0.00 in /  0 mm 60 W/m2
11:50 35.4 °F /  1.9 °C 32.2 °F /  0.1 °C 30.40 in /  1029.3 hPa ESE 3.0 mph /  4.8 km/h 4.0 mph /  6.4 km/h 88 % 0.00 in /  0 mm 102 W/m2
11:55 35.6 °F /  2 °C 32.4 °F /  0.2 °C 30.40 in /  1029.3 hPa ESE 2.0 mph /  3.2 km/h 4.0 mph /  6.4 km/h 88 % 0.00 in /  0 mm 111 W/m2
12:00 35.6 °F /  2 °C 32.1 °F /  0.1 °C 30.40 in /  1029.3 hPa ESE 3.0 mph /  4.8 km/h 7.0 mph /  11.3 km/h 87 % 0.00 in /  0 mm 116 W/m2
12:05 35.8 °F /  2.1 °C 32.3 °F /  0.2 °C 30.40 in /  1029.3 hPa East 4.0 mph /  6.4 km/h 7.0 mph /  11.3 km/h 87 % 0.00 in /  0 mm 109 W/m2
12:10 35.9 °F /  2.2 °C 32.1 °F /  0.1 °C 30.40 in /  1029.3 hPa ESE 4.0 mph /  6.4 km/h 4.0 mph /  6.4 km/h 86 % 0.00 in /  0 mm 114 W/m2
12:20 36.0 °F /  2.2 °C 31.9 °F /  -0.1 °C 30.40 in /  1029.3 hPa ESE 5.0 mph /  8 km/h 7.0 mph /  11.3 km/h 85 % 0.00 in /  0 mm 65 W/m2
12:25 36.0 °F /  2.2 °C 31.6 °F /  -0.2 °C 30.40 in /  1029.3 hPa ESE 5.0 mph /  8 km/h 7.0 mph /  11.3 km/h 84 % 0.00 in /  0 mm 58 W/m2
12:35 36.0 °F /  2.2 °C 31.6 °F /  -0.2 °C 30.40 in /  1029.3 hPa ESE 4.0 mph /  6.4 km/h 7.0 mph /  11.3 km/h 84 % 0.00 in /  0 mm 67 W/m2
12:40 36.0 °F /  2.2 °C 31.6 °F /  -0.2 °C 30.40 in /  1029.3 hPa East 4.0 mph /  6.4 km/h 4.0 mph /  6.4 km/h 84 % 0.00 in /  0 mm 83 W/m2
12:45 36.1 °F /  2.3 °C 31.7 °F /  -0.2 °C 30.40 in /  1029.3 hPa ESE 4.0 mph /  6.4 km/h 4.0 mph /  6.4 km/h 84 % 0.00 in /  0 mm 105 W/m2
12:50 36.2 °F /  2.3 °C 31.5 °F /  -0.3 °C 30.40 in /  1029.3 hPa SE 3.0 mph /  4.8 km/h 4.0 mph /  6.4 km/h 83 % 0.00 in /  0 mm 100 W/m2
13:00 36.4 °F /  2.4 °C 31.7 °F /  -0.2 °C 30.40 in /  1029.3 hPa ESE 3.0 mph /  4.8 km/h 6.0 mph /  9.7 km/h 83 % 0.00 in /  0 mm 91 W/m2
13:05 36.4 °F /  2.4 °C 31.4 °F /  -0.3 °C 30.39 in /  1029 hPa East 4.0 mph /  6.4 km/h 6.0 mph /  9.7 km/h 82 % 0.00 in /  0 mm 83 W/m2
13:10 36.3 °F /  2.4 °C 31.3 °F /  -0.4 °C 30.39 in /  1029 hPa ESE 5.0 mph /  8 km/h 7.0 mph /  11.3 km/h 82 % 0.00 in /  0 mm 98 W/m2
13:15 36.3 °F /  2.4 °C 31.3 °F /  -0.4 °C 30.39 in /  1029 hPa ESE 5.0 mph /  8 km/h 7.0 mph /  11.3 km/h 82 % 0.00 in /  0 mm 97 W/m2
13:20 36.4 °F /  2.4 °C 31.4 °F /  -0.3 °C 30.39 in /  1029 hPa ENE 4.0 mph /  6.4 km/h 4.0 mph /  6.4 km/h 82 % 0.00 in /  0 mm 90 W/m2
13:25 36.4 °F /  2.4 °C 31.4 °F /  -0.3 °C 30.39 in /  1029 hPa ESE 4.0 mph /  6.4 km/h 4.0 mph /  6.4 km/h 82 % 0.00 in /  0 mm 84 W/m2
13:35 36.3 °F /  2.4 °C 31.0 °F /  -0.6 °C 30.38 in /  1028.7 hPa ENE 4.0 mph /  6.4 km/h 4.0 mph /  6.4 km/h 81 % 0.00 in /  0 mm 77 W/m2
13:40 36.3 °F /  2.4 °C 31.0 °F /  -0.6 °C 30.38 in /  1028.7 hPa ESE 4.0 mph /  6.4 km/h 9.0 mph /  14.5 km/h 81 % 0.00 in /  0 mm 70 W/m2
13:45 36.3 °F /  2.4 °C 31.0 °F /  -0.6 °C 30.38 in /  1028.7 hPa ESE 5.0 mph /  8 km/h 9.0 mph /  14.5 km/h 81 % 0.00 in /  0 mm 63 W/m2
13:50 36.3 °F /  2.4 °C 31.3 °F /  -0.4 °C 30.39 in /  1029 hPa ESE 4.0 mph /  6.4 km/h 4.0 mph /  6.4 km/h 82 % 0.00 in /  0 mm 65 W/m2
13:55 36.4 °F /  2.4 °C 31.4 °F /  -0.3 °C 30.38 in /  1028.7 hPa East 2.0 mph /  3.2 km/h 4.0 mph /  6.4 km/h 82 % 0.00 in /  0 mm 76 W/m2
14:00 36.4 °F /  2.4 °C 31.4 °F /  -0.3 °C 30.39 in /  1029 hPa East 3.0 mph /  4.8 km/h 3.0 mph /  4.8 km/h 82 % 0.00 in /  0 mm 74 W/m2
14:05 36.4 °F /  2.4 °C 31.4 °F /  -0.3 °C 30.38 in /  1028.7 hPa East 2.0 mph /  3.2 km/h 5.0 mph /  8 km/h 82 % 0.00 in /  0 mm 65 W/m2
14:10 36.3 °F /  2.4 °C 31.3 °F /  -0.4 °C 30.38 in /  1028.7 hPa ESE 3.0 mph /  4.8 km/h 3.0 mph /  4.8 km/h 82 % 0.00 in /  0 mm 62 W/m2
14:15 36.3 °F /  2.4 °C 31.3 °F /  -0.4 °C 30.38 in /  1028.7 hPa East 3.0 mph /  4.8 km/h 5.0 mph /  8 km/h 82 % 0.00 in /  0 mm 62 W/m2
14:20 36.3 °F /  2.4 °C 31.3 °F /  -0.4 °C 30.38 in /  1028.7 hPa East 2.0 mph /  3.2 km/h 2.0 mph /  3.2 km/h 82 % 0.00 in /  0 mm 58 W/m2
14:25 36.2 °F /  2.3 °C 31.2 °F /  -0.4 °C 30.38 in /  1028.7 hPa East 3.0 mph /  4.8 km/h 3.0 mph /  4.8 km/h 82 % 0.00 in /  0 mm 60 W/m2
14:30 36.2 °F /  2.3 °C 31.5 °F /  -0.3 °C 30.38 in /  1028.7 hPa East 3.0 mph /  4.8 km/h 3.0 mph /  4.8 km/h 83 % 0.00 in /  0 mm 63 W/m2
14:40 36.2 °F /  2.3 °C 31.5 °F /  -0.3 °C 30.38 in /  1028.7 hPa ENE 4.0 mph /  6.4 km/h 4.0 mph /  6.4 km/h 83 % 0.00 in /  0 mm 56 W/m2
14:45 36.2 °F /  2.3 °C 31.5 °F /  -0.3 °C 30.37 in /  1028.3 hPa ENE 3.0 mph /  4.8 km/h 5.0 mph /  8 km/h 83 % 0.00 in /  0 mm 49 W/m2
14:50 36.1 °F /  2.3 °C 31.4 °F /  -0.3 °C 30.37 in /  1028.3 hPa ENE 4.0 mph /  6.4 km/h 4.0 mph /  6.4 km/h 83 % 0.00 in /  0 mm 39 W/m2
15:00 35.9 °F /  2.2 °C 31.2 °F /  -0.4 °C 30.37 in /  1028.3 hPa NE 4.0 mph /  6.4 km/h 6.0 mph /  9.7 km/h 83 % 0.00 in /  0 mm 21 W/m2
15:05 35.7 °F /  2.1 °C 31.3 °F /  -0.4 °C 30.36 in /  1028 hPa ENE 5.0 mph /  8 km/h 6.0 mph /  9.7 km/h 84 % 0.00 in /  0 mm 16 W/m2
15:10 35.6 °F /  2 °C 31.5 °F /  -0.3 °C 30.36 in /  1028 hPa ENE 5.0 mph /  8 km/h 5.0 mph /  8 km/h 85 % 0.00 in /  0 mm 28 W/m2
15:20 35.3 °F /  1.8 °C 31.5 °F /  -0.3 °C 30.36 in /  1028 hPa NE 4.0 mph /  6.4 km/h 4.0 mph /  6.4 km/h 86 % 0.00 in /  0 mm 32 W/m2
15:25 35.3 °F /  1.8 °C 31.8 °F /  -0.1 °C 30.37 in /  1028.3 hPa ENE 4.0 mph /  6.4 km/h 4.0 mph /  6.4 km/h 87 % 0.00 in /  0 mm 32 W/m2
15:30 35.2 °F /  1.8 °C 32.0 °F /  0 °C 30.36 in /  1028 hPa ENE 3.0 mph /  4.8 km/h 3.0 mph /  4.8 km/h 88 % 0.00 in /  0 mm 33 W/m2
15:35 35.2 °F /  1.8 °C 32.0 °F /  0 °C 30.36 in /  1028 hPa ENE 3.0 mph /  4.8 km/h 4.0 mph /  6.4 km/h 88 % 0.00 in /  0 mm 35 W/m2
15:40 35.1 °F /  1.7 °C 31.9 °F /  -0.1 °C 30.36 in /  1028 hPa East 4.0 mph /  6.4 km/h 4.0 mph /  6.4 km/h 88 % 0.00 in /  0 mm 35 W/m2
15:50 34.9 °F /  1.6 °C 32.0 °F /  0 °C 30.36 in /  1028 hPa ENE 3.0 mph /  4.8 km/h 4.0 mph /  6.4 km/h 89 % 0.00 in /  0 mm 28 W/m2
15:55 34.9 °F /  1.6 °C 32.3 °F /  0.2 °C 30.37 in /  1028.3 hPa ENE 3.0 mph /  4.8 km/h 5.0 mph /  8 km/h 90 % 0.00 in /  0 mm 23 W/m2
16:00 34.8 °F /  1.6 °C 32.2 °F /  0.1 °C 30.37 in /  1028.3 hPa East 3.0 mph /  4.8 km/h 3.0 mph /  4.8 km/h 90 % 0.00 in /  0 mm 12 W/m2
16:05 34.7 °F /  1.5 °C 32.1 °F /  0.1 °C 30.37 in /  1028.3 hPa ENE 2.0 mph /  3.2 km/h 3.0 mph /  4.8 km/h 90 % 0.00 in /  0 mm 11 W/m2
16:10 34.7 °F /  1.5 °C 32.1 °F /  0.1 °C 30.36 in /  1028 hPa East 3.0 mph /  4.8 km/h 3.0 mph /  4.8 km/h 90 % 0.00 in /  0 mm 14 W/m2
16:20 34.4 °F /  1.3 °C 32.0 °F /  0 °C 30.36 in /  1028 hPa ESE 2.0 mph /  3.2 km/h 2.0 mph /  3.2 km/h 91 % 0.00 in /  0 mm 16 W/m2
16:25 34.4 °F /  1.3 °C 32.0 °F /  0 °C 30.37 in /  1028.3 hPa ENE 2.0 mph /  3.2 km/h 3.0 mph /  4.8 km/h 91 % 0.00 in /  0 mm 11 W/m2
16:30 34.4 °F /  1.3 °C 32.0 °F /  0 °C 30.37 in /  1028.3 hPa ENE 2.0 mph /  3.2 km/h 3.0 mph /  4.8 km/h 91 % 0.00 in /  0 mm 9 W/m2
16:35 34.3 °F /  1.3 °C 31.9 °F /  -0.1 °C 30.36 in /  1028 hPa ESE 2.0 mph /  3.2 km/h 5.0 mph /  8 km/h 91 % 0.00 in /  0 mm 7 W/m2
16:40 34.3 °F /  1.3 °C 31.9 °F /  -0.1 °C 30.36 in /  1028 hPa East 2.0 mph /  3.2 km/h 5.0 mph /  8 km/h 91 % 0.00 in /  0 mm 5 W/m2
16:50 34.2 °F /  1.2 °C 31.8 °F /  -0.1 °C 30.36 in /  1028 hPa East 2.0 mph /  3.2 km/h 2.0 mph /  3.2 km/h 91 % 0.00 in /  0 mm 0 W/m2
16:55 34.1 °F /  1.2 °C 31.7 °F /  -0.2 °C 30.36 in /  1028 hPa ENE 2.0 mph /  3.2 km/h 3.0 mph /  4.8 km/h 91 % 0.00 in /  0 mm 0 W/m2
17:00 34.0 °F /  1.1 °C 31.6 °F /  -0.2 °C 30.36 in /  1028 hPa East 2.0 mph /  3.2 km/h 2.0 mph /  3.2 km/h 91 % 0.00 in /  0 mm 0 W/m2
17:05 34.0 °F /  1.1 °C 31.6 °F /  -0.2 °C 30.36 in /  1028 hPa ENE 3.0 mph /  4.8 km/h 3.0 mph /  4.8 km/h 91 % 0.00 in /  0 mm 0 W/m2
17:10 34.0 °F /  1.1 °C 31.6 °F /  -0.2 °C 30.35 in /  1027.7 hPa ENE 4.0 mph /  6.4 km/h 5.0 mph /  8 km/h 91 % 0.00 in /  0 mm 0 W/m2
17:15 33.9 °F /  1.1 °C 31.6 °F /  -0.2 °C 30.36 in /  1028 hPa East 4.0 mph /  6.4 km/h 5.0 mph /  8 km/h 91 % 0.00 in /  0 mm 0 W/m2
17:25 33.7 °F /  0.9 °C 31.4 °F /  -0.3 °C 30.36 in /  1028 hPa ENE 3.0 mph /  4.8 km/h 4.0 mph /  6.4 km/h 91 % 0.00 in /  0 mm 0 W/m2
17:30 33.7 °F /  0.9 °C 31.4 °F /  -0.3 °C 30.36 in /  1028 hPa ENE 2.0 mph /  3.2 km/h 4.0 mph /  6.4 km/h 91 % 0.00 in /  0 mm 0 W/m2
17:35 33.6 °F /  0.9 °C 31.3 °F /  -0.4 °C 30.35 in /  1027.7 hPa East 2.0 mph /  3.2 km/h 4.0 mph /  6.4 km/h 91 % 0.00 in /  0 mm 0 W/m2
17:40 33.6 °F /  0.9 °C 31.3 °F /  -0.4 °C 30.35 in /  1027.7 hPa East 2.0 mph /  3.2 km/h 2.0 mph /  3.2 km/h 91 % 0.00 in /  0 mm 0 W/m2
17:45 33.6 °F /  0.9 °C 31.3 °F /  -0.4 °C 30.36 in /  1028 hPa ENE 1.0 mph /  1.6 km/h 4.0 mph /  6.4 km/h 91 % 0.00 in /  0 mm 0 W/m2
17:55 33.6 °F /  0.9 °C 31.5 °F /  -0.3 °C 30.36 in /  1028 hPa ENE 2.0 mph /  3.2 km/h 7.0 mph /  11.3 km/h 92 % 0.00 in /  0 mm 0 W/m2
18:00 33.6 °F /  0.9 °C 31.5 °F /  -0.3 °C 30.36 in /  1028 hPa ENE 2.0 mph /  3.2 km/h 3.0 mph /  4.8 km/h 92 % 0.00 in /  0 mm 0 W/m2
18:05 33.5 °F /  0.8 °C 31.2 °F /  -0.4 °C 30.36 in /  1028 hPa East 2.0 mph /  3.2 km/h 3.0 mph /  4.8 km/h 91 % 0.00 in /  0 mm 0 W/m2
18:10 33.5 °F /  0.8 °C 31.2 °F /  -0.4 °C 30.36 in /  1028 hPa ENE 3.0 mph /  4.8 km/h 3.0 mph /  4.8 km/h 91 % 0.00 in /  0 mm 0 W/m2
18:15 33.5 °F /  0.8 °C 31.2 °F /  -0.4 °C 30.36 in /  1028 hPa East 3.0 mph /  4.8 km/h 3.0 mph /  4.8 km/h 91 % 0.00 in /  0 mm 0 W/m2
18:20 33.4 °F /  0.8 °C 31.1 °F /  -0.5 °C 30.36 in /  1028 hPa East 3.0 mph /  4.8 km/h 3.0 mph /  4.8 km/h 91 % 0.00 in /  0 mm 0 W/m2
18:30 33.5 °F /  0.8 °C 30.9 °F /  -0.6 °C 30.36 in /  1028 hPa ENE 3.0 mph /  4.8 km/h 3.0 mph /  4.8 km/h 90 % 0.00 in /  0 mm 0 W/m2
18:35 33.5 °F /  0.8 °C 30.9 °F /  -0.6 °C 30.36 in /  1028 hPa ENE 4.0 mph /  6.4 km/h 4.0 mph /  6.4 km/h 90 % 0.00 in /  0 mm 0 W/m2
18:40 33.5 °F /  0.8 °C 30.9 °F /  -0.6 °C 30.36 in /  1028 hPa NE 4.0 mph /  6.4 km/h 5.0 mph /  8 km/h 90 % 0.00 in /  0 mm 0 W/m2
18:45 33.5 °F /  0.8 °C 30.9 °F /  -0.6 °C 30.36 in /  1028 hPa ENE 4.0 mph /  6.4 km/h 5.0 mph /  8 km/h 90 % 0.00 in /  0 mm 0 W/m2
18:50 33.5 °F /  0.8 °C 30.9 °F /  -0.6 °C 30.36 in /  1028 hPa ESE 4.0 mph /  6.4 km/h 6.0 mph /  9.7 km/h 90 % 0.00 in /  0 mm 0 W/m2
19:00 33.5 °F /  0.8 °C 30.9 °F /  -0.6 °C 30.36 in /  1028 hPa ENE 4.0 mph /  6.4 km/h 7.0 mph /  11.3 km/h 90 % 0.00 in /  0 mm 0 W/m2
19:05 33.4 °F /  0.8 °C 30.8 °F /  -0.7 °C 30.36 in /  1028 hPa East 3.0 mph /  4.8 km/h 7.0 mph /  11.3 km/h 90 % 0.00 in /  0 mm 0 W/m2
19:10 33.4 °F /  0.8 °C 30.8 °F /  -0.7 °C 30.36 in /  1028 hPa ENE 4.0 mph /  6.4 km/h 5.0 mph /  8 km/h 90 % 0.00 in /  0 mm 0 W/m2
19:15 33.4 °F /  0.8 °C 31.1 °F /  -0.5 °C 30.36 in /  1028 hPa NE 3.0 mph /  4.8 km/h 5.0 mph /  8 km/h 91 % 0.00 in /  0 mm 0 W/m2
19:20 33.4 °F /  0.8 °C 31.1 °F /  -0.5 °C 30.36 in /  1028 hPa ESE 2.0 mph /  3.2 km/h 2.0 mph /  3.2 km/h 91 % 0.00 in /  0 mm 0 W/m2
19:25 33.3 °F /  0.7 °C 31.0 °F /  -0.6 °C 30.36 in /  1028 hPa East 2.0 mph /  3.2 km/h 3.0 mph /  4.8 km/h 91 % 0.00 in /  0 mm 0 W/m2
19:35 33.3 °F /  0.7 °C 31.2 °F /  -0.4 °C 30.36 in /  1028 hPa East 3.0 mph /  4.8 km/h 5.0 mph /  8 km/h 92 % 0.00 in /  0 mm 0 W/m2
19:40 33.3 °F /  0.7 °C 31.2 °F /  -0.4 °C 30.36 in /  1028 hPa ENE 2.0 mph /  3.2 km/h 2.0 mph /  3.2 km/h 92 % 0.00 in /  0 mm 0 W/m2
19:50 33.3 °F /  0.7 °C 31.2 °F /  -0.4 °C 30.36 in /  1028 hPa ENE 2.0 mph /  3.2 km/h 2.0 mph /  3.2 km/h 92 % 0.00 in /  0 mm 0 W/m2
19:55 33.3 °F /  0.7 °C 31.5 °F /  -0.3 °C 30.36 in /  1028 hPa NE 2.0 mph /  3.2 km/h 3.0 mph /  4.8 km/h 93 % 0.00 in /  0 mm 0 W/m2
20:00 33.3 °F /  0.7 °C 31.5 °F /  -0.3 °C 30.36 in /  1028 hPa East 1.0 mph /  1.6 km/h 3.0 mph /  4.8 km/h 93 % 0.00 in /  0 mm 0 W/m2
20:10 33.4 °F /  0.8 °C 31.6 °F /  -0.2 °C 30.36 in /  1028 hPa ENE 2.0 mph /  3.2 km/h 2.0 mph /  3.2 km/h 93 % 0.00 in /  0 mm 0 W/m2
20:15 33.4 °F /  0.8 °C 31.6 °F /  -0.2 °C 30.35 in /  1027.7 hPa ENE 1.0 mph /  1.6 km/h 3.0 mph /  4.8 km/h 93 % 0.00 in /  0 mm 0 W/m2
20:20 33.4 °F /  0.8 °C 31.6 °F /  -0.2 °C 30.35 in /  1027.7 hPa ENE 1.0 mph /  1.6 km/h 1.0 mph /  1.6 km/h 93 % 0.00 in /  0 mm 0 W/m2
20:25 33.4 °F /  0.8 °C 31.6 °F /  -0.2 °C 30.35 in /  1027.7 hPa ENE 1.0 mph /  1.6 km/h 2.0 mph /  3.2 km/h 93 % 0.00 in /  0 mm 0 W/m2
20:30 33.4 °F /  0.8 °C 31.6 °F /  -0.2 °C 30.35 in /  1027.7 hPa ENE 1.0 mph /  1.6 km/h 3.0 mph /  4.8 km/h 93 % 0.00 in /  0 mm 0 W/m2
20:40 33.4 °F /  0.8 °C 31.6 °F /  -0.2 °C 30.35 in /  1027.7 hPa ENE 3.0 mph /  4.8 km/h 3.0 mph /  4.8 km/h 93 % 0.00 in /  0 mm 0 W/m2
20:45 33.4 °F /  0.8 °C 31.6 °F /  -0.2 °C 30.35 in /  1027.7 hPa ENE 3.0 mph /  4.8 km/h 4.0 mph /  6.4 km/h 93 % 0.00 in /  0 mm 0 W/m2
20:50 33.4 °F /  0.8 °C 31.6 °F /  -0.2 °C 30.35 in /  1027.7 hPa ENE 4.0 mph /  6.4 km/h 4.0 mph /  6.4 km/h 93 % 0.00 in /  0 mm 0 W/m2
20:55 33.4 °F /  0.8 °C 31.6 °F /  -0.2 °C 30.35 in /  1027.7 hPa NE 4.0 mph /  6.4 km/h 6.0 mph /  9.7 km/h 93 % 0.00 in /  0 mm 0 W/m2
21:00 33.4 °F /  0.8 °C 31.6 °F /  -0.2 °C 30.35 in /  1027.7 hPa ENE 4.0 mph /  6.4 km/h 4.0 mph /  6.4 km/h 93 % 0.00 in /  0 mm 0 W/m2
21:05 33.4 °F /  0.8 °C 31.6 °F /  -0.2 °C 30.35 in /  1027.7 hPa East 3.0 mph /  4.8 km/h 7.0 mph /  11.3 km/h 93 % 0.00 in /  0 mm 0 W/m2
21:15 33.4 °F /  0.8 °C 31.6 °F /  -0.2 °C 30.35 in /  1027.7 hPa ENE 3.0 mph /  4.8 km/h 3.0 mph /  4.8 km/h 93 % 0.00 in /  0 mm 0 W/m2
21:20 33.3 °F /  0.7 °C 31.5 °F /  -0.3 °C 30.35 in /  1027.7 hPa ENE 3.0 mph /  4.8 km/h 3.0 mph /  4.8 km/h 93 % 0.00 in /  0 mm 0 W/m2
21:25 33.4 °F /  0.8 °C 31.6 °F /  -0.2 °C 30.35 in /  1027.7 hPa ENE 3.0 mph /  4.8 km/h 3.0 mph /  4.8 km/h 93 % 0.00 in /  0 mm 0 W/m2
21:30 33.4 °F /  0.8 °C 31.6 °F /  -0.2 °C 30.35 in /  1027.7 hPa East 3.0 mph /  4.8 km/h 3.0 mph /  4.8 km/h 93 % 0.00 in /  0 mm 0 W/m2
21:35 33.3 °F /  0.7 °C 31.5 °F /  -0.3 °C 30.35 in /  1027.7 hPa ENE 2.0 mph /  3.2 km/h 3.0 mph /  4.8 km/h 93 % 0.00 in /  0 mm 0 W/m2
21:45 33.3 °F /  0.7 °C 31.5 °F /  -0.3 °C 30.35 in /  1027.7 hPa ENE 2.0 mph /  3.2 km/h 3.0 mph /  4.8 km/h 93 % 0.00 in /  0 mm 0 W/m2
21:50 33.3 °F /  0.7 °C 31.5 °F /  -0.3 °C 30.34 in /  1027.3 hPa ENE 2.0 mph /  3.2 km/h 3.0 mph /  4.8 km/h 93 % 0.00 in /  0 mm 0 W/m2
21:55 33.3 °F /  0.7 °C 31.5 °F /  -0.3 °C 30.34 in /  1027.3 hPa NNE 2.0 mph /  3.2 km/h 4.0 mph /  6.4 km/h 93 % 0.00 in /  0 mm 0 W/m2
22:00 33.3 °F /  0.7 °C 31.5 °F /  -0.3 °C 30.34 in /  1027.3 hPa ENE 2.0 mph /  3.2 km/h 6.0 mph /  9.7 km/h 93 % 0.00 in /  0 mm 0 W/m2
22:05 33.3 °F /  0.7 °C 31.5 °F /  -0.3 °C 30.34 in /  1027.3 hPa East 2.0 mph /  3.2 km/h 6.0 mph /  9.7 km/h 93 % 0.00 in /  0 mm 0 W/m2
22:10 33.3 °F /  0.7 °C 31.5 °F /  -0.3 °C 30.35 in /  1027.7 hPa NE 2.0 mph /  3.2 km/h 5.0 mph /  8 km/h 93 % 0.00 in /  0 mm 0 W/m2
22:20 33.3 °F /  0.7 °C 31.5 °F /  -0.3 °C 30.34 in /  1027.3 hPa ENE 4.0 mph /  6.4 km/h 5.0 mph /  8 km/h 93 % 0.00 in /  0 mm 0 W/m2
22:25 33.3 °F /  0.7 °C 31.5 °F /  -0.3 °C 30.34 in /  1027.3 hPa ENE 4.0 mph /  6.4 km/h 5.0 mph /  8 km/h 93 % 0.00 in /  0 mm 0 W/m2
22:30 33.4 °F /  0.8 °C 31.6 °F /  -0.2 °C 30.34 in /  1027.3 hPa NE 3.0 mph /  4.8 km/h 5.0 mph /  8 km/h 93 % 0.00 in /  0 mm 0 W/m2
22:35 33.4 °F /  0.8 °C 31.6 °F /  -0.2 °C 30.34 in /  1027.3 hPa NNE 3.0 mph /  4.8 km/h 6.0 mph /  9.7 km/h 93 % 0.00 in /  0 mm 0 W/m2
22:40 33.4 °F /  0.8 °C 31.6 °F /  -0.2 °C 30.34 in /  1027.3 hPa ENE 4.0 mph /  6.4 km/h 4.0 mph /  6.4 km/h 93 % 0.00 in /  0 mm 0 W/m2
23:00 33.5 °F /  0.8 °C 31.7 °F /  -0.2 °C 30.34 in /  1027.3 hPa ENE 3.0 mph /  4.8 km/h 3.0 mph /  4.8 km/h 93 % 0.00 in /  0 mm 0 W/m2
23:05 33.5 °F /  0.8 °C 31.7 °F /  -0.2 °C 30.34 in /  1027.3 hPa NE 2.0 mph /  3.2 km/h 3.0 mph /  4.8 km/h 93 % 0.00 in /  0 mm 0 W/m2
23:20 33.5 °F /  0.8 °C 31.7 °F /  -0.2 °C 30.35 in /  1027.7 hPa NE 1.0 mph /  1.6 km/h 3.0 mph /  4.8 km/h 93 % 0.00 in /  0 mm 0 W/m2
23:25 33.5 °F /  0.8 °C 31.7 °F /  -0.2 °C 30.35 in /  1027.7 hPa NE 2.0 mph /  3.2 km/h 3.0 mph /  4.8 km/h 93 % 0.00 in /  0 mm 0 W/m2
23:40 33.4 °F /  0.8 °C 31.9 °F /  -0.1 °C 30.34 in /  1027.3 hPa NE 4.0 mph /  6.4 km/h 4.0 mph /  6.4 km/h 94 % 0.00 in /  0 mm 0 W/m2
23:45 33.4 °F /  0.8 °C 31.9 °F /  -0.1 °C 30.34 in /  1027.3 hPa NE 4.0 mph /  6.4 km/h 4.0 mph /  6.4 km/h 94 % 0.00 in /  0 mm 0 W/m2
23:55 33.4 °F /  0.8 °C 31.9 °F /  -0.1 °C 30.34 in /  1027.3 hPa NE 2.0 mph /  3.2 km/h 3.0 mph /  4.8 km/h 94 % 0.00 in /  0 mm 0 W/m2
Delerius-Weather
Compliments of Weather Underground - 2 mb

Data updates at regular intervals.